Observation data for McLean on 11/19/2019      Previous  Date       Current Mesonet Observations  Soil Data  Daily Summary Page  Observations in Plain Language
KMCS 190600Z 03005KT 14/01 A2995 RMK A01 T01410014  RH  043%=      5-min Rain = 0
KMCS 190605Z 04005KT 14/01 A2995 RMK A01 T01440013  RH  042%=      5-min Rain = 0
KMCS 190610Z 05006KT 14/01 A2994 RMK A01 T01440013  RH  042%=      5-min Rain = 0
KMCS 190615Z 06006KT 14/01 A2994 RMK A01 T01390012  RH  043%=      5-min Rain = 0
KMCS 190620Z 06006KT 13/01 A2994 RMK A01 T01330012  RH  044%=      5-min Rain = 0
KMCS 190625Z 06007KT 13/01 A2994 RMK A01 T01280012  RH  046%=      5-min Rain = 0
KMCS 190630Z 06008KT 13/01 A2993 RMK A01 T01270012  RH  046%=      5-min Rain = 0
KMCS 190635Z 06009KT 13/01 A2993 RMK A01 T01270012  RH  046%=      5-min Rain = 0
KMCS 190640Z 06009KT 13/01 A2993 RMK A01 T01260012  RH  046%=      5-min Rain = 0
KMCS 190645Z 06007KT 13/01 A2994 RMK A01 T01260012  RH  046%=      5-min Rain = 0
KMCS 190650Z 05005KT 13/01 A2995 RMK A01 T01290012  RH  046%=      5-min Rain = 0
KMCS 190655Z 04004KT 14/01 A2996 RMK A01 T01350012  RH  044%=      5-min Rain = 0
KMCS 190700Z 01003KT 11/01 A2996 RMK A01 T01130009  RH  049%=      5-min Rain = 0
KMCS 190705Z 33006KT 10/01 A2996 RMK A01 T00990010  RH  055%=      5-min Rain = 0
KMCS 190710Z 34008KT 09/01 A2996 RMK A01 T00870010  RH  059%=      5-min Rain = 0
KMCS 190715Z 01005KT 10/01 A2996 RMK A01 T00970011  RH  056%=      5-min Rain = 0
KMCS 190720Z 36004KT 09/01 A2996 RMK A01 T00860007  RH  058%=      5-min Rain = 0
KMCS 190725Z 01003KT 08/01 A2996 RMK A01 T00830007  RH  060%=      5-min Rain = 0
KMCS 190730Z 01003KT 08/01 A2996 RMK A01 T00830007  RH  060%=      5-min Rain = 0
KMCS 190735Z 04004KT 09/01 A2996 RMK A01 T00880009  RH  058%=      5-min Rain = 0
KMCS 190740Z 05004KT 11/01 A2996 RMK A01 T01140013  RH  050%=      5-min Rain = 0
KMCS 190745Z 05004KT 13/01 A2996 RMK A01 T01270014  RH  047%=      5-min Rain = 0
KMCS 190750Z 06004KT 13/01 A2996 RMK A01 T01300014  RH  046%=      5-min Rain = 0
KMCS 190755Z 06004KT 13/01 A2996 RMK A01 T01280013  RH  046%=      5-min Rain = 0
KMCS 190800Z 06004KT 12/01 A2996 RMK A01 T01240013  RH  047%=      5-min Rain = 0
KMCS 190805Z 07003KT 12/01 A2996 RMK A01 T01190012  RH  048%=      5-min Rain = 0
KMCS 190810Z 07004KT 12/01 A2996 RMK A01 T01180013  RH  049%=      5-min Rain = 0
KMCS 190815Z 07005KT 12/01 A2995 RMK A01 T01210013  RH  048%=      5-min Rain = 0
KMCS 190820Z 07006KT 12/01 A2995 RMK A01 T01210014  RH  048%=      5-min Rain = 0
KMCS 190825Z 07006KT 12/02 A2996 RMK A01 T01240015  RH  048%=      5-min Rain = 0
KMCS 190830Z 07006KT 12/02 A2996 RMK A01 T01240015  RH  048%=      5-min Rain = 0
KMCS 190835Z 07005KT 13/02 A2996 RMK A01 T01250016  RH  048%=      5-min Rain = 0
KMCS 190840Z 07004KT 13/02 A2996 RMK A01 T01260016  RH  048%=      5-min Rain = 0
KMCS 190845Z 07004KT 11/01 A2997 RMK A01 T01090009  RH  051%=      5-min Rain = 0
KMCS 190850Z 08004KT 10/01 A2997 RMK A01 T01030012  RH  054%=      5-min Rain = 0
KMCS 190855Z 08004KT 10/01 A2997 RMK A01 T01010011  RH  054%=      5-min Rain = 0
KMCS 190900Z 08004KT 11/01 A2996 RMK A01 T01050014  RH  054%=      5-min Rain = 0
KMCS 190905Z 07002KT 10/01 A2997 RMK A01 T00970010  RH  055%=      5-min Rain = 0
KMCS 190910Z 30003KT 08/01 A2997 RMK A01 T00770007  RH  062%=      5-min Rain = 0
KMCS 190915Z 27005KT 07/00 A2997 RMK A01 T00710004  RH  063%=      5-min Rain = 0
KMCS 190920Z 27002KT 08/01 A2997 RMK A01 T00760010  RH  064%=      5-min Rain = 0
KMCS 190925Z 27001KT 10/02 A2997 RMK A01 T00960016  RH  058%=      5-min Rain = 0
KMCS 190930Z 24004KT 11/02 A2997 RMK A01 T01070015  RH  054%=      5-min Rain = 0
KMCS 190935Z 24002KT 10/01 A2997 RMK A01 T00980012  RH  056%=      5-min Rain = 0
KMCS 190940Z 24002KT 09/01 A2997 RMK A01 T00940013  RH  058%=      5-min Rain = 0
KMCS 190945Z 25001KT 10/01 A2996 RMK A01 T00980014  RH  057%=      5-min Rain = 0
KMCS 190950Z 25001KT 10/02 A2996 RMK A01 T01030015  RH  055%=      5-min Rain = 0
KMCS 190955Z 25001KT 11/02 A2996 RMK A01 T01100016  RH  053%=      5-min Rain = 0
KMCS 191000Z 24001KT 11/02 A2996 RMK A01 T01100015  RH  053%=      5-min Rain = 0
KMCS 191005Z 24001KT 11/02 A2996 RMK A01 T01070015  RH  054%=      5-min Rain = 0
KMCS 191010Z 26002KT 10/01 A2996 RMK A01 T01000012  RH  055%=      5-min Rain = 0
KMCS 191015Z 29003KT 08/01 A2996 RMK A01 T00820010  RH  061%=      5-min Rain = 0
KMCS 191020Z 30001KT 09/01 A2996 RMK A01 T00860013  RH  061%=      5-min Rain = 0
KMCS 191025Z 31000KT 10/02 A2996 RMK A01 T01040017  RH  056%=      5-min Rain = 0
KMCS 191030Z 31001KT 12/02 A2996 RMK A01 T01150019  RH  053%=      5-min Rain = 0
KMCS 191035Z 13002KT 12/02 A2996 RMK A01 T01210020  RH  051%=      5-min Rain = 0
KMCS 191040Z 13003KT 12/02 A2995 RMK A01 T01210020  RH  051%=      5-min Rain = 0
KMCS 191045Z 13003KT 13/02 A2995 RMK A01 T01270022  RH  049%=      5-min Rain = 0
KMCS 191050Z 13003KT 13/02 A2995 RMK A01 T01290021  RH  049%=      5-min Rain = 0
KMCS 191055Z 12004KT 13/02 A2995 RMK A01 T01280021  RH  049%=      5-min Rain = 0
KMCS 191100Z 12005KT 13/02 A2995 RMK A01 T01250021  RH  050%=      5-min Rain = 0
KMCS 191105Z 12005KT 12/02 A2995 RMK A01 T01210021  RH  051%=      5-min Rain = 0
KMCS 191110Z 13005KT 12/02 A2995 RMK A01 T01230022  RH  051%=      5-min Rain = 0
KMCS 191115Z 13005KT 12/02 A2995 RMK A01 T01210022  RH  052%=      5-min Rain = 0
KMCS 191120Z 13005KT 12/02 A2995 RMK A01 T01170021  RH  053%=      5-min Rain = 0
KMCS 191125Z 13006KT 12/02 A2994 RMK A01 T01160021  RH  053%=      5-min Rain = 0
KMCS 191130Z 13006KT 12/02 A2994 RMK A01 T01150022  RH  054%=      5-min Rain = 0
KMCS 191135Z 12005KT 11/02 A2994 RMK A01 T01130023  RH  054%=      5-min Rain = 0
KMCS 191140Z 12005KT 12/02 A2994 RMK A01 T01150023  RH  054%=      5-min Rain = 0
KMCS 191145Z 12006KT 11/02 A2994 RMK A01 T01130022  RH  054%=      5-min Rain = 0
KMCS 191150Z 12006KT 11/02 A2994 RMK A01 T01110022  RH  055%=      5-min Rain = 0
KMCS 191155Z 12006KT 11/02 A2994 RMK A01 T01100022  RH  055%=      5-min Rain = 0
KMCS 191200Z 11006KT 11/02 A2994 RMK A01 T01090022  RH  056%=      5-min Rain = 0
KMCS 191205Z 11007KT 11/02 A2994 RMK A01 T01070022  RH  057%=      5-min Rain = 0
KMCS 191210Z 11007KT 11/02 A2993 RMK A01 T01070022  RH  057%=      5-min Rain = 0
KMCS 191215Z 11006KT 11/02 A2993 RMK A01 T01070022  RH  057%=      5-min Rain = 0
KMCS 191220Z 10007KT 10/02 A2993 RMK A01 T01040022  RH  058%=      5-min Rain = 0
KMCS 191225Z 10007KT 10/02 A2993 RMK A01 T01020022  RH  058%=      5-min Rain = 0
KMCS 191230Z 11007KT 10/02 A2993 RMK A01 T01010022  RH  059%=      5-min Rain = 0
KMCS 191235Z 11007KT 10/02 A2993 RMK A01 T01010022  RH  059%=      5-min Rain = 0
KMCS 191240Z 11007KT 10/02 A2993 RMK A01 T01000021  RH  059%=      5-min Rain = 0
KMCS 191245Z 11006KT 10/02 A2993 RMK A01 T00980021  RH  060%=      5-min Rain = 0
KMCS 191250Z 11006KT 10/02 A2993 RMK A01 T00970021  RH  060%=      5-min Rain = 0
KMCS 191255Z 11006KT 10/02 A2993 RMK A01 T00960021  RH  060%=      5-min Rain = 0
KMCS 191300Z 11006KT 10/02 A2993 RMK A01 T00950021  RH  061%=      5-min Rain = 0
KMCS 191305Z 11007KT 09/02 A2993 RMK A01 T00940020  RH  061%=      5-min Rain = 0
KMCS 191310Z 11007KT 09/02 A2993 RMK A01 T00910019  RH  062%=      5-min Rain = 0
KMCS 191315Z 11008KT 09/02 A2993 RMK A01 T00920020  RH  062%=      5-min Rain = 0
KMCS 191320Z 11007KT 09/02 A2993 RMK A01 T00910020  RH  062%=      5-min Rain = 0
KMCS 191325Z 11006KT 09/02 A2993 RMK A01 T00920020  RH  062%=      5-min Rain = 0
KMCS 191330Z 11007KT 09/02 A2993 RMK A01 T00920020  RH  062%=      5-min Rain = 0
KMCS 191335Z 12007KT 09/02 A2993 RMK A01 T00920020  RH  062%=      5-min Rain = 0
KMCS 191340Z 12007KT 10/02 A2993 RMK A01 T00950022  RH  061%=      5-min Rain = 0
KMCS 191345Z 11006KT 09/02 A2993 RMK A01 T00940022  RH  061%=      5-min Rain = 0
KMCS 191350Z 11007KT 10/02 A2993 RMK A01 T00950022  RH  061%=      5-min Rain = 0
KMCS 191355Z 12007KT 10/02 A2993 RMK A01 T00980023  RH  061%=      5-min Rain = 0
KMCS 191400Z 12007KT 10/03 A2993 RMK A01 T01000025  RH  060%=      5-min Rain = 0
KMCS 191405Z 12007KT 11/03 A2993 RMK A01 T01050026  RH  059%=      5-min Rain = 0
KMCS 191410Z 12007KT 11/03 A2993 RMK A01 T01090028  RH  058%=      5-min Rain = 0
KMCS 191415Z 13007KT 11/03 A2993 RMK A01 T01130028  RH  057%=      5-min Rain = 0
KMCS 191420Z 13008KT 12/03 A2993 RMK A01 T01160028  RH  056%=      5-min Rain = 0
KMCS 191425Z 13008KT 12/03 A2993 RMK A01 T01180029  RH  055%=      5-min Rain = 0
KMCS 191430Z 13008KT 12/03 A2993 RMK A01 T01210030  RH  054%=      5-min Rain = 0
KMCS 191435Z 13008KT 12/03 A2993 RMK A01 T01240030  RH  054%=      5-min Rain = 0
KMCS 191440Z 12008KT 13/03 A2993 RMK A01 T01260032  RH  053%=      5-min Rain = 0
KMCS 191445Z 12007KT 13/03 A2993 RMK A01 T01280033  RH  053%=      5-min Rain = 0
KMCS 191450Z 12008KT 13/03 A2993 RMK A01 T01310033  RH  053%=      5-min Rain = 0
KMCS 191455Z 13008KT 13/03 A2993 RMK A01 T01340034  RH  052%=      5-min Rain = 0
KMCS 191500Z 14010KT 14/03 A2993 RMK A01 T01380034  RH  050%=      5-min Rain = 0
KMCS 191505Z 14010KT 14/03 A2993 RMK A01 T01420033  RH  049%=      5-min Rain = 0
KMCS 191510Z 14009KT 15/03 A2993 RMK A01 T01450032  RH  047%=      5-min Rain = 0
KMCS 191515Z 13011KT 15/03 A2993 RMK A01 T01470030  RH  046%=      5-min Rain = 0
KMCS 191520Z 13010KT 15/03 A2993 RMK A01 T01490030  RH  045%=      5-min Rain = 0
KMCS 191525Z 13010KT 15/03 A2993 RMK A01 T01510030  RH  045%=      5-min Rain = 0
KMCS 191530Z 13010KT 15/03 A2994 RMK A01 T01540028  RH  044%=      5-min Rain = 0
KMCS 191535Z 13011G16KT 16/03 A2994 RMK A01 T01560027  RH  043%=      5-min Rain = 0
KMCS 191540Z 13010KT 16/03 A2994 RMK A01 T01570028  RH  043%=      5-min Rain = 0
KMCS 191545Z 15010KT 16/03 A2994 RMK A01 T01580026  RH  042%=      5-min Rain = 0
KMCS 191550Z 14009G14KT 16/03 A2994 RMK A01 T01600027  RH  041%=      5-min Rain = 0
KMCS 191555Z 15011G16KT 16/02 A2994 RMK A01 T01610024  RH  041%=      5-min Rain = 0
KMCS 191600Z 15013KT 16/02 A2994 RMK A01 T01620022  RH  040%=      5-min Rain = 0
KMCS 191605Z 15012KT 16/02 A2994 RMK A01 T01640022  RH  039%=      5-min Rain = 0
KMCS 191610Z 15013KT 16/02 A2994 RMK A01 T01640020  RH  039%=      5-min Rain = 0
KMCS 191615Z 15012KT 17/02 A2993 RMK A01 T01650021  RH  038%=      5-min Rain = 0
KMCS 191620Z 15010G15KT 17/02 A2993 RMK A01 T01700022  RH  037%=      5-min Rain = 0
KMCS 191625Z 15010G15KT 17/02 A2993 RMK A01 T01740021  RH  036%=      5-min Rain = 0
KMCS 191630Z 16012G17KT 17/02 A2993 RMK A01 T01730019  RH  036%=      5-min Rain = 0
KMCS 191635Z 16013KT 17/02 A2993 RMK A01 T01710015  RH  035%=      5-min Rain = 0
KMCS 191640Z 15011KT 17/02 A2993 RMK A01 T01730016  RH  035%=      5-min Rain = 0
KMCS 191645Z 16011KT 18/02 A2993 RMK A01 T01750016  RH  035%=      5-min Rain = 0
KMCS 191650Z 16011KT 18/02 A2992 RMK A01 T01780017  RH  034%=      5-min Rain = 0
KMCS 191655Z 16012KT 18/01 A2992 RMK A01 T01800014  RH  033%=      5-min Rain = 0
KMCS 191700Z 16012KT 18/01 A2992 RMK A01 T01790014  RH  033%=      5-min Rain = 0
KMCS 191705Z 17011KT 18/02 A2992 RMK A01 T01830016  RH  033%=      5-min Rain = 0
KMCS 191710Z 17014KT 18/01 A2992 RMK A01 T01820013  RH  033%=      5-min Rain = 0
KMCS 191715Z 17014KT 18/02 A2992 RMK A01 T01830016  RH  033%=      5-min Rain = 0
KMCS 191720Z 17013KT 19/02 A2991 RMK A01 T01860017  RH  033%=      5-min Rain = 0
KMCS 191725Z 16013G18KT 19/02 A2991 RMK A01 T01860017  RH  033%=      5-min Rain = 0
KMCS 191730Z 17014KT 19/02 A2991 RMK A01 T01880018  RH  032%=      5-min Rain = 0
KMCS 191735Z 16014G20KT 19/02 A2991 RMK A01 T01920017  RH  032%=      5-min Rain = 0
KMCS 191740Z 16014G20KT 19/02 A299 RMK A01 T01920016  RH  031%=      5-min Rain = 0
KMCS 191745Z 17016KT 19/02 A299 RMK A01 T01940016  RH  031%=      5-min Rain = 0
KMCS 191750Z 16017G22KT 20/01 A299 RMK A01 T01980011  RH  029%=      5-min Rain = 0
KMCS 191755Z 16015G23KT 20/01 A2989 RMK A01 T02020009  RH  028%=      5-min Rain = 0
KMCS 191800Z 17017G22KT 21/01 A2989 RMK A01 T02050006  RH  027%=      5-min Rain = 0
KMCS 191805Z 17015G21KT 21/01 A2989 RMK A01 T02080007  RH  027%=      5-min Rain = 0
KMCS 191810Z 18018G24KT 21/01 A2989 RMK A01 T02070005  RH  026%=      5-min Rain = 0
KMCS 191815Z 18019G24KT 21/00 A2988 RMK A01 T02080004  RH  026%=      5-min Rain = 0
KMCS 191820Z 17018G23KT 21/00 A2988 RMK A01 T02080004  RH  026%=      5-min Rain = 0
KMCS 191825Z 17019KT 21/00 A2987 RMK A01 T02110004  RH  026%=      5-min Rain = 0
KMCS 191830Z 17019G26KT 21/00 A2987 RMK A01 T02110003  RH  025%=      5-min Rain = 0
KMCS 191835Z 17017G23KT 22/01 A2987 RMK A01 T02150005  RH  025%=      5-min Rain = 0
KMCS 191840Z 17019G25KT 21/01 A2986 RMK A01 T02130005  RH  025%=      5-min Rain = 0
KMCS 191845Z 18018G23KT 22/01 A2986 RMK A01 T02160006  RH  025%=      5-min Rain = 0
KMCS 191850Z 18019KT 22/01 A2986 RMK A01 T02170005  RH  025%=      5-min Rain = 0
KMCS 191855Z 18018G24KT 22/01 A2985 RMK A01 T02170006  RH  025%=      5-min Rain = 0
KMCS 191900Z 17016G21KT 22/01 A2985 RMK A01 T02190007  RH  025%=      5-min Rain = 0
KMCS 191905Z 16017G23KT 22/01 A2984 RMK A01 T02180008  RH  025%=      5-min Rain = 0
KMCS 191910Z 16018G25KT 22/01 A2984 RMK A01 T02170007  RH  025%=      5-min Rain = 0
KMCS 191915Z 16018G24KT 22/01 A2984 RMK A01 T02190006  RH  025%=      5-min Rain = 0
KMCS 191920Z 16018G26KT 22/00 A2983 RMK A01 T02180004  RH  024%=      5-min Rain = 0
KMCS 191925Z 16020G25KT 22/00 A2983 RMK A01 T02190004  RH  024%=      5-min Rain = 0
KMCS 191930Z 17018G23KT 22/01 A2983 RMK A01 T02200005  RH  024%=      5-min Rain = 0
KMCS 191935Z 17018G26KT 22/01 A2983 RMK A01 T02200005  RH  024%=      5-min Rain = 0
KMCS 191940Z 17018G23KT 22/01 A2983 RMK A01 T02190005  RH  024%=      5-min Rain = 0
KMCS 191945Z 16019G28KT 22/00 A2982 RMK A01 T02200004  RH  024%=      5-min Rain = 0
KMCS 191950Z 17018G27KT 22/01 A2982 RMK A01 T02210006  RH  024%=      5-min Rain = 0
KMCS 191955Z 17016G25KT 22/01 A2981 RMK A01 T02240006  RH  024%=      5-min Rain = 0
KMCS 192000Z 17018G25KT 23/01 A2981 RMK A01 T02260005  RH  023%=      5-min Rain = 0
KMCS 192005Z 17019G26KT 22/00 A2981 RMK A01 T02240004  RH  024%=      5-min Rain = 0
KMCS 192010Z 18019G25KT 22/01 A2981 RMK A01 T02240006  RH  024%=      5-min Rain = 0
KMCS 192015Z 18018G25KT 23/01 A2981 RMK A01 T02250006  RH  024%=      5-min Rain = 0
KMCS 192020Z 17018G24KT 22/01 A2981 RMK A01 T02230005  RH  024%=      5-min Rain = 0
KMCS 192025Z 18018G23KT 22/01 A2981 RMK A01 T02230007  RH  024%=      5-min Rain = 0
KMCS 192030Z 17017G23KT 22/01 A2981 RMK A01 T02230008  RH  024%=      5-min Rain = 0
KMCS 192035Z 17018G24KT 22/01 A298 RMK A01 T02240007  RH  024%=      5-min Rain = 0
KMCS 192040Z 17017G24KT 23/01 A298 RMK A01 T02260008  RH  024%=      5-min Rain = 0
KMCS 192045Z 18017G25KT 23/01 A298 RMK A01 T02260009  RH  024%=      5-min Rain = 0
KMCS 192050Z 18020G26KT 22/01 A298 RMK A01 T02220008  RH  025%=      5-min Rain = 0
KMCS 192055Z 18017G24KT 23/01 A298 RMK A01 T02270010  RH  024%=      5-min Rain = 0
KMCS 192100Z 18017G22KT 23/01 A298 RMK A01 T02260010  RH  024%=      5-min Rain = 0
KMCS 192105Z 17018KT 23/01 A298 RMK A01 T02270010  RH  024%=      5-min Rain = 0
KMCS 192110Z 17017G22KT 23/01 A2979 RMK A01 T02290011  RH  024%=      5-min Rain = 0
KMCS 192115Z 17017G23KT 23/01 A2979 RMK A01 T02300012  RH  024%=      5-min Rain = 0
KMCS 192120Z 17016G21KT 23/01 A2979 RMK A01 T02310012  RH  024%=      5-min Rain = 0
KMCS 192125Z 17018G25KT 23/01 A2979 RMK A01 T02320012  RH  024%=      5-min Rain = 0
KMCS 192130Z 17017G22KT 23/01 A2979 RMK A01 T02310013  RH  024%=      5-min Rain = 0
KMCS 192135Z 16018G23KT 23/01 A2978 RMK A01 T02310013  RH  024%=      5-min Rain = 0
KMCS 192140Z 16016G22KT 23/01 A2978 RMK A01 T02310014  RH  024%=      5-min Rain = 0
KMCS 192145Z 16016G22KT 24/01 A2978 RMK A01 T02350014  RH  024%=      5-min Rain = 0
KMCS 192150Z 17018G25KT 23/01 A2977 RMK A01 T02340013  RH  024%=      5-min Rain = 0
KMCS 192155Z 16019G24KT 24/01 A2977 RMK A01 T02350013  RH  024%=      5-min Rain = 0
KMCS 192200Z 16018G24KT 24/01 A2977 RMK A01 T02350011  RH  023%=      5-min Rain = 0
KMCS 192205Z 16017G23KT 24/01 A2977 RMK A01 T02360010  RH  023%=      5-min Rain = 0
KMCS 192210Z 18017G24KT 24/01 A2977 RMK A01 T02350005  RH  022%=      5-min Rain = 0
KMCS 192215Z 17018G24KT 24/00 A2977 RMK A01 T02350004  RH  022%=      5-min Rain = 0
KMCS 192220Z 17019G25KT 24/00 A2977 RMK A01 T02360001  RH  021%=      5-min Rain = 0
KMCS 192225Z 17017G24KT 24/00 A2977 RMK A01 T02360002  RH  022%=      5-min Rain = 0
KMCS 192230Z 16016G23KT 24/00 A2977 RMK A01 T02350003  RH  022%=      5-min Rain = 0
KMCS 192235Z 17016G24KT 23/00 A2977 RMK A01 T02340004  RH  022%=      5-min Rain = 0
KMCS 192240Z 17017G23KT 23/00 A2977 RMK A01 T02330004  RH  022%=      5-min Rain = 0
KMCS 192245Z 17015G24KT 23/01 A2977 RMK A01 T02310005  RH  023%=      5-min Rain = 0
KMCS 192250Z 17016G21KT 23/01 A2977 RMK A01 T02290005  RH  023%=      5-min Rain = 0
KMCS 192255Z 17014G19KT 23/01 A2977 RMK A01 T02270005  RH  023%=      5-min Rain = 0
KMCS 192300Z 17015G20KT 23/01 A2977 RMK A01 T02260005  RH  023%=      5-min Rain = 0
KMCS 192305Z 17013G18KT 22/01 A2977 RMK A01 T02240005  RH  024%=      5-min Rain = 0
KMCS 192310Z 18013G19KT 22/01 A2977 RMK A01 T02200007  RH  025%=      5-min Rain = 0
KMCS 192315Z 17013KT 22/01 A2977 RMK A01 T02170008  RH  025%=      5-min Rain = 0
KMCS 192320Z 17012G17KT 22/01 A2977 RMK A01 T02150008  RH  026%=      5-min Rain = 0
KMCS 192325Z 17013G18KT 21/01 A2977 RMK A01 T02130010  RH  026%=      5-min Rain = 0
KMCS 192330Z 17012KT 21/01 A2978 RMK A01 T02110011  RH  027%=      5-min Rain = 0
KMCS 192335Z 17012KT 21/01 A2978 RMK A01 T02070013  RH  028%=      5-min Rain = 0
KMCS 192340Z 17012KT 20/02 A2978 RMK A01 T02040015  RH  029%=      5-min Rain = 0
KMCS 192345Z 17012KT 20/02 A2978 RMK A01 T02020016  RH  029%=      5-min Rain = 0
KMCS 192350Z 17013KT 20/02 A2978 RMK A01 T02000017  RH  030%=      5-min Rain = 0
KMCS 192355Z 17012KT 20/02 A2978 RMK A01 T01980017  RH  030%=      5-min Rain = 0
KMCS 200000Z 16011KT 20/02 A2978 RMK A01 T01960017  RH  031%=      5-min Rain = 0
KMCS 200005Z 16011KT 19/02 A2978 RMK A01 T01940017  RH  031%=      5-min Rain = 0
KMCS 200010Z 16011KT 19/02 A2978 RMK A01 T01920017  RH  032%=      5-min Rain = 0
KMCS 200015Z 16012KT 19/02 A2978 RMK A01 T01910017  RH  032%=      5-min Rain = 0
KMCS 200020Z 16010KT 19/02 A2978 RMK A01 T01880017  RH  032%=      5-min Rain = 0
KMCS 200025Z 16011KT 19/02 A2978 RMK A01 T01860017  RH  033%=      5-min Rain = 0
KMCS 200030Z 16011KT 18/02 A2979 RMK A01 T01830017  RH  033%=      5-min Rain = 0
KMCS 200035Z 16011KT 18/02 A2979 RMK A01 T01810017  RH  034%=      5-min Rain = 0
KMCS 200040Z 16010KT 18/02 A2979 RMK A01 T01770017  RH  035%=      5-min Rain = 0
KMCS 200045Z 16010KT 17/02 A2979 RMK A01 T01730017  RH  035%=      5-min Rain = 0
KMCS 200050Z 15009KT 17/02 A2979 RMK A01 T01700017  RH  036%=      5-min Rain = 0
KMCS 200055Z 15010KT 17/02 A2979 RMK A01 T01670018  RH  037%=      5-min Rain = 0
KMCS 200100Z 15009KT 16/02 A2979 RMK A01 T01630019  RH  038%=      5-min Rain = 0
KMCS 200105Z 15010KT 16/02 A2979 RMK A01 T01640022  RH  039%=      5-min Rain = 0
KMCS 200110Z 15010G15KT 16/03 A298 RMK A01 T01620025  RH  040%=      5-min Rain = 0
KMCS 200115Z 15011KT 16/03 A298 RMK A01 T01620028  RH  041%=      5-min Rain = 0
KMCS 200120Z 15011KT 16/03 A298 RMK A01 T01610031  RH  042%=      5-min Rain = 0
KMCS 200125Z 15011KT 16/03 A298 RMK A01 T01610034  RH  043%=      5-min Rain = 0
KMCS 200130Z 15012G17KT 16/04 A298 RMK A01 T01630039  RH  044%=      5-min Rain = 0
KMCS 200135Z 16013G18KT 16/04 A2979 RMK A01 T01640042  RH  045%=      5-min Rain = 0
KMCS 200140Z 15012KT 16/04 A2979 RMK A01 T01630043  RH  046%=      5-min Rain = 0
KMCS 200145Z 15012G17KT 16/04 A2979 RMK A01 T01620044  RH  046%=      5-min Rain = 0
KMCS 200150Z 15012KT 16/05 A2979 RMK A01 T01600045  RH  047%=      5-min Rain = 0
KMCS 200155Z 15013G18KT 16/05 A2979 RMK A01 T01600046  RH  048%=      5-min Rain = 0
KMCS 200200Z 15012G18KT 16/05 A2979 RMK A01 T01580047  RH  049%=      5-min Rain = 0
KMCS 200205Z 15012G17KT 16/05 A2979 RMK A01 T01560047  RH  049%=      5-min Rain = 0
KMCS 200210Z 15012KT 16/05 A2979 RMK A01 T01560047  RH  049%=      5-min Rain = 0
KMCS 200215Z 15012G17KT 16/05 A2979 RMK A01 T01550046  RH  049%=      5-min Rain = 0
KMCS 200220Z 15013KT 16/05 A2979 RMK A01 T01560046  RH  049%=      5-min Rain = 0
KMCS 200225Z 15013G18KT 16/05 A2979 RMK A01 T01560045  RH  049%=      5-min Rain = 0
KMCS 200230Z 15013KT 16/04 A2979 RMK A01 T01550044  RH  048%=      5-min Rain = 0
KMCS 200235Z 15013KT 15/04 A2979 RMK A01 T01540043  RH  048%=      5-min Rain = 0
KMCS 200240Z 15013G18KT 15/04 A2979 RMK A01 T01530042  RH  049%=      5-min Rain = 0
KMCS 200245Z 15013G18KT 15/04 A2979 RMK A01 T01520042  RH  049%=      5-min Rain = 0
KMCS 200250Z 15012KT 15/04 A2979 RMK A01 T01510041  RH  049%=      5-min Rain = 0
KMCS 200255Z 15012KT 15/04 A2979 RMK A01 T01510040  RH  049%=      5-min Rain = 0
KMCS 200300Z 15012G18KT 15/04 A2979 RMK A01 T01490039  RH  049%=      5-min Rain = 0
KMCS 200305Z 15011KT 15/04 A2979 RMK A01 T01470038  RH  049%=      5-min Rain = 0
KMCS 200310Z 16011KT 15/04 A2979 RMK A01 T01460038  RH  049%=      5-min Rain = 0
KMCS 200315Z 15011KT 15/04 A2979 RMK A01 T01450038  RH  049%=      5-min Rain = 0
KMCS 200320Z 15011KT 14/04 A2979 RMK A01 T01430037  RH  050%=      5-min Rain = 0
KMCS 200325Z 15010KT 14/04 A298 RMK A01 T01420037  RH  050%=      5-min Rain = 0
KMCS 200330Z 16010KT 14/04 A2979 RMK A01 T01410037  RH  050%=      5-min Rain = 0
KMCS 200335Z 16010KT 14/04 A298 RMK A01 T01390036  RH  051%=      5-min Rain = 0
KMCS 200340Z 16010KT 14/04 A298 RMK A01 T01370037  RH  051%=      5-min Rain = 0
KMCS 200345Z 16011KT 14/04 A298 RMK A01 T01380037  RH  051%=      5-min Rain = 0
KMCS 200350Z 16012KT 14/04 A298 RMK A01 T01400037  RH  051%=      5-min Rain = 0
KMCS 200355Z 16012KT 14/04 A298 RMK A01 T01400037  RH  051%=      5-min Rain = 0
KMCS 200400Z 16012KT 14/04 A298 RMK A01 T01390037  RH  051%=      5-min Rain = 0
KMCS 200405Z 16013KT 14/04 A298 RMK A01 T01390037  RH  051%=      5-min Rain = 0
KMCS 200410Z 16012G17KT 14/04 A2979 RMK A01 T01380037  RH  051%=      5-min Rain = 0
KMCS 200415Z 16012KT 14/04 A2979 RMK A01 T01370036  RH  052%=      5-min Rain = 0
KMCS 200420Z 16012KT 13/04 A2979 RMK A01 T01340036  RH  052%=      5-min Rain = 0
KMCS 200425Z 17012KT 13/04 A2979 RMK A01 T01330036  RH  053%=      5-min Rain = 0
KMCS 200430Z 17011KT 13/04 A2979 RMK A01 T01320036  RH  053%=      5-min Rain = 0
KMCS 200435Z 16011KT 13/04 A2979 RMK A01 T01300035  RH  053%=      5-min Rain = 0
KMCS 200440Z 16011KT 13/04 A2979 RMK A01 T01290035  RH  054%=      5-min Rain = 0
KMCS 200445Z 16010KT 13/04 A2979 RMK A01 T01280035  RH  054%=      5-min Rain = 0
KMCS 200450Z 16010KT 13/04 A2979 RMK A01 T01270035  RH  054%=      5-min Rain = 0
KMCS 200455Z 16010KT 13/03 A2979 RMK A01 T01260034  RH  055%=      5-min Rain = 0
KMCS 200500Z 16009KT 13/04 A2978 RMK A01 T01250035  RH  055%=      5-min Rain = 0
KMCS 200505Z 16010KT 13/04 A2978 RMK A01 T01250035  RH  055%=      5-min Rain = 0
KMCS 200510Z 15009KT 12/03 A2978 RMK A01 T01220034  RH  056%=      5-min Rain = 0
KMCS 200515Z 15009KT 12/04 A2978 RMK A01 T01200035  RH  057%=      5-min Rain = 0
KMCS 200520Z 15009KT 12/03 A2978 RMK A01 T01180034  RH  057%=      5-min Rain = 0
KMCS 200525Z 15011KT 12/04 A2978 RMK A01 T01200035  RH  057%=      5-min Rain = 0
KMCS 200530Z 15011KT 12/04 A2978 RMK A01 T01230036  RH  056%=      5-min Rain = 0
KMCS 200535Z 16011G16KT 13/04 A2977 RMK A01 T01250036  RH  056%=      5-min Rain = 0
KMCS 200540Z 16011KT 12/04 A2977 RMK A01 T01240036  RH  056%=      5-min Rain = 0
KMCS 200545Z 16010KT 12/04 A2977 RMK A01 T01220036  RH  056%=      5-min Rain = 0
KMCS 200550Z 16011KT 12/04 A2977 RMK A01 T01200035  RH  057%=      5-min Rain = 0
KMCS 200555Z 16012KT 12/04 A2977 RMK A01 T01220037  RH  057%=      5-min Rain = 0

Page generated in 0.0092 seconds.